Sagamore Hills, Ohio
Current Conditions -  °F | °C
As of 1:53 PM on Tuesday 21 Oct 2014 (Local Time) from KBKL Reporting Station
Overcast Overcast  
Wind Chill: 51°   Ceiling: 2100
Heat Index: 51°   Visibility: 10mi
Dew Point: 43°   Wind: 21mph
Humidity: 74%   Direction: 320°NW
Pressure: 29.96"   Gusts: 29mph
Location:  41.3128°N, 81.5476°W
Report Text: KBKL 211753Z 32018G25KT 10SM BKN021 OVC027 11/06 A2996 RMK AO2 PK WND 34026/1717 RAB03E12B32E41 SLP146 P0000 60001 T01060061 10111 20100 51012
Loading
Personal Weather Stations






























Interactive Weather Map
Tropical Storm Tracking
New forecast layout! Learn more

10-Day Weather Forecast

Advertisements
Track Severe Weather on mobile